Time;durP1;ratioP1;P1;durP2;ratioP2;P2;SDS_P1;SDS_P2;PMS_P1;PMS_P2;Temp;Humidity;BMP_temperature;BMP_pressure;BME280_temperature;BME280_humidity;BME280_pressure;Samples;Min_cycle;Max_cycle;Signal;HPM_P1;HPM_P2
2022/06/07 16:35:24;;;;;;;1.17;0.50;;;17.10;99.90;;;;;;5150207;27;20050;-90
2022/06/07 16:37:50;;;;;;;1.15;0.47;;;17.00;99.90;;;;;;5150152;27;20075;-91
2022/06/07 16:40:16;;;;;;;2.03;0.40;;;16.90;99.90;;;;;;5150113;27;20127;-91
2022/06/07 16:42:41;;;;;;;2.60;0.50;;;16.90;99.90;;;;;;5131670;27;20545;-90
2022/06/07 16:45:08;;;;;;;3.53;0.50;;;16.80;99.90;;;;;;5150262;27;20059;-91
2022/06/07 16:47:38;;;;;;;2.97;1.05;;;16.90;99.90;;;;;;5149933;27;20110;-89
2022/06/07 16:50:04;;;;;;;1.45;0.40;;;16.90;99.90;;;;;;5149751;27;20043;-88
2022/06/07 16:52:31;;;;;;;1.83;0.40;;;16.80;99.90;;;;;;5151364;27;20080;-90
2022/06/07 16:54:57;;;;;;;1.27;0.50;;;16.90;99.90;;;;;;5150035;27;20042;-88
2022/06/07 16:57:26;;;;;;;1.73;0.60;;;17.00;99.90;;;;;;5132021;27;20404;-89
2022/06/07 16:59:55;;;;;;;3.63;0.50;;;17.10;99.90;;;;;;5150274;27;20446;-88
2022/06/07 17:02:20;;;;;;;3.10;0.47;;;17.10;99.90;;;;;;5158134;27;20054;-86
2022/06/07 17:07:41;;;;;;;1.15;0.30;;;17.00;99.90;;;;;;5197471;22;20090;-89
2022/06/07 17:18:24;;;;;;;3.17;0.65;;;16.70;99.90;;;;;;5162683;22;20329;-84
2022/06/07 17:20:59;;;;;;;3.45;0.63;;;17.20;99.90;;;;;;5081897;28;20486;-86
2022/06/07 17:23:25;;;;;;;5.13;0.80;;;16.70;99.90;;;;;;5074153;28;20048;-85
2022/06/07 17:25:51;;;;;;;2.08;0.65;;;16.70;99.90;;;;;;5090949;28;20526;-85
2022/06/07 17:28:17;;;;;;;1.50;0.60;;;16.70;99.90;;;;;;5072514;28;20040;-85
2022/06/07 17:31:17;;;;;;;1.10;0.50;;;16.60;99.90;;;;;;5041781;28;20388;-91
2022/06/07 17:36:27;;;;;;;4.15;0.65;;;16.50;99.90;;;;;;5165143;22;20799;-86
2022/06/07 17:47:27;;;;;;;4.30;1.70;;;16.50;99.90;;;;;;4974135;28;20059;-87
2022/06/07 17:49:53;;;;;;;2.70;0.57;;;16.50;99.90;;;;;;4975401;28;20042;-88
2022/06/07 17:52:22;;;;;;;2.00;0.43;;;16.40;99.90;;;;;;4977923;28;20050;-86
2022/06/07 17:57:23;;;;;;;2.47;0.60;;;16.30;99.90;;;;;;5130118;23;20050;-86
2022/06/07 17:59:48;;;;;;;1.65;0.68;;;16.20;99.90;;;;;;4994585;28;20412;-88
2022/06/07 18:02:18;;;;;;;1.15;0.50;;;16.20;99.90;;;;;;4995243;28;20057;-88
2022/06/07 18:04:46;;;;;;;0.95;0.50;;;16.20;99.90;;;;;;4993820;28;20050;-88
2022/06/07 18:07:12;;;;;;;1.88;0.50;;;16.10;99.90;;;;;;4977861;28;20039;-88
2022/06/07 18:09:40;;;;;;;2.10;0.50;;;16.10;99.90;;;;;;4995365;28;20128;-89
2022/06/07 18:12:06;;;;;;;2.00;0.60;;;16.00;99.90;;;;;;4994342;28;20127;-87
2022/06/07 18:14:35;;;;;;;1.02;0.60;;;16.10;99.90;;;;;;4994014;28;20050;-91
2022/06/07 18:17:01;;;;;;;4.38;0.70;;;16.00;99.90;;;;;;4977742;28;20042;-88
2022/06/07 18:19:27;;;;;;;1.95;0.45;;;15.90;99.90;;;;;;4993839;28;20133;-87
2022/06/07 18:22:02;;;;;;;1.67;0.40;;;15.90;99.90;;;;;;5050071;23;21487;-87
2022/06/07 18:24:31;;;;;;;2.35;0.55;;;15.80;99.90;;;;;;4997295;28;20479;-89
2022/06/07 18:26:56;;;;;;;2.83;0.43;;;15.90;99.90;;;;;;4996966;28;20081;-87
2022/06/07 18:29:22;;;;;;;1.67;0.50;;;15.80;99.90;;;;;;5012429;28;20073;-89
2022/06/07 18:31:57;;;;;;;3.83;0.50;;;15.80;99.90;;;;;;5013255;28;20563;-87
2022/06/07 18:34:39;;;;;;;;;;;15.80;99.90;;;;;;5013626;28;20046;-87
2022/06/07 18:40:45;;;;;;;2.72;0.52;;;15.80;99.90;;;;;;4986360;28;20046;-88
2022/06/07 18:43:14;;;;;;;2.95;0.40;;;15.60;99.90;;;;;;4953396;29;20494;-89
2022/06/07 18:45:40;;;;;;;1.05;0.40;;;15.50;99.90;;;;;;4951861;29;20118;-87
2022/06/07 18:48:06;;;;;;;1.45;0.50;;;15.20;99.90;;;;;;4936424;29;20122;-89
2022/06/07 18:50:32;;;;;;;3.40;0.60;;;15.50;99.90;;;;;;4937558;28;20043;-88
2022/06/07 18:53:04;;;;;;;3.80;0.43;;;15.50;99.90;;;;;;4936778;29;20046;-91
2022/06/07 18:55:35;;;;;;;1.40;0.52;;;15.40;99.90;;;;;;4937334;29;20121;-87
2022/06/07 18:58:02;;;;;;;2.20;0.35;;;15.30;99.90;;;;;;4937332;29;20059;-88
2022/06/07 19:00:30;;;;;;;1.90;0.47;;;15.30;99.90;;;;;;4920529;29;20495;-86
2022/06/07 19:02:56;;;;;;;4.72;0.93;;;15.20;99.90;;;;;;4949723;29;20069;-87
2022/06/07 19:05:27;;;;;;;0.90;0.40;;;15.20;99.90;;;;;;4946002;29;20154;-88
2022/06/07 19:07:54;;;;;;;1.60;0.50;;;15.20;99.90;;;;;;4932259;29;20445;-88
2022/06/07 19:10:20;;;;;;;3.05;0.82;;;15.10;99.90;;;;;;4935001;29;20134;-88
2022/06/07 19:12:53;;;;;;;2.53;0.70;;;15.10;99.90;;;;;;4918535;29;20090;-89
2022/06/07 19:15:33;;;;;;;1.77;0.60;;;15.00;99.90;;;;;;4936438;29;20031;-89
2022/06/07 19:18:08;;;;;;;2.08;0.40;;;15.00;99.90;;;;;;4992204;28;20058;-90
2022/06/07 19:24:29;;;;;;;0.70;0.50;;;14.90;99.90;;;;;;5020617;28;20050;-89
2022/06/07 19:35:59;;;;;;;2.67;0.50;;;15.40;99.90;;;;;;4953518;26;20051;-90
2022/06/07 19:44:51;;;;;;;1.25;0.60;;;14.40;99.90;;;;;;4931294;29;20142;-85
2022/06/07 19:47:28;;;;;;;0.73;0.50;;;14.70;99.90;;;;;;4934419;29;20058;-86
2022/06/07 19:49:57;;;;;;;1.45;0.60;;;14.50;99.90;;;;;;4929591;29;20115;-86
2022/06/07 19:52:30;;;;;;;2.90;0.50;;;14.70;99.90;;;;;;4930242;29;20470;-86
2022/06/07 19:54:58;;;;;;;1.70;0.50;;;14.90;99.90;;;;;;4934206;28;20047;-85
2022/06/07 19:57:24;;;;;;;1.10;0.47;;;14.60;99.90;;;;;;4935155;29;20047;-88
2022/06/07 19:59:50;;;;;;;1.00;0.45;;;14.50;99.90;;;;;;4918445;29;20062;-88
2022/06/07 20:02:16;;;;;;;0.90;0.55;;;14.50;99.90;;;;;;4934463;29;20054;-87
2022/06/07 20:04:42;;;;;;;1.90;0.40;;;14.50;99.90;;;;;;4917842;29;20569;-86
2022/06/07 20:07:10;;;;;;;4.22;0.65;;;14.50;99.90;;;;;;4934616;29;20139;-85
2022/06/07 20:09:39;;;;;;;2.88;0.60;;;14.50;99.90;;;;;;4934170;29;20123;-89
2022/06/07 20:12:06;;;;;;;1.70;0.57;;;14.50;99.90;;;;;;4934073;29;20474;-88
2022/06/07 20:14:35;;;;;;;1.52;0.40;;;14.40;99.90;;;;;;4933872;28;20040;-85
2022/06/07 20:17:07;;;;;;;2.38;0.70;;;14.40;99.90;;;;;;4935594;29;20410;-85
2022/06/07 20:19:33;;;;;;;2.80;0.60;;;14.40;99.90;;;;;;4933586;29;20498;-85
2022/06/07 20:21:59;;;;;;;1.15;0.43;;;14.30;99.90;;;;;;4933944;29;20102;-86
2022/06/07 20:24:25;;;;;;;1.30;0.60;;;14.40;99.90;;;;;;4935254;29;20048;-85
2022/06/07 20:26:54;;;;;;;2.28;0.52;;;14.30;99.90;;;;;;4933819;29;20122;-84
2022/06/07 20:29:21;;;;;;;2.83;0.77;;;14.20;99.90;;;;;;4933196;29;20052;-86
2022/06/07 20:31:48;;;;;;;4.60;0.60;;;14.20;99.90;;;;;;4934131;29;20526;-85
2022/06/07 20:34:14;;;;;;;2.35;0.65;;;14.10;99.90;;;;;;4935019;29;20047;-87
2022/06/07 20:36:41;;;;;;;1.65;0.50;;;14.00;99.90;;;;;;4934201;29;20240;-87
2022/06/07 20:39:07;;;;;;;3.88;0.88;;;14.00;99.90;;;;;;4935438;29;20054;-87
2022/06/07 20:41:33;;;;;;;2.75;0.63;;;13.90;99.90;;;;;;4948430;29;20082;-85
2022/06/07 20:43:59;;;;;;;0.88;0.60;;;13.90;99.90;;;;;;4942326;28;20071;-85
2022/06/07 20:46:26;;;;;;;1.65;0.80;;;13.90;99.90;;;;;;4920941;29;20118;-85
2022/06/07 20:48:54;;;;;;;2.53;1.05;;;13.80;99.90;;;;;;4934234;29;20402;-90
2022/06/07 20:51:23;;;;;;;3.45;0.70;;;13.80;99.90;;;;;;4935180;29;20070;-85
2022/06/07 20:53:52;;;;;;;1.25;0.65;;;13.70;99.90;;;;;;5061557;23;20043;-83
2022/06/07 20:59:59;;;;;;;3.35;0.65;;;13.60;99.90;;;;;;4992858;28;20507;-84
2022/06/07 21:02:25;;;;;;;1.23;0.60;;;13.50;99.90;;;;;;4992520;28;20035;-83
2022/06/07 21:04:52;;;;;;;1.90;0.70;;;13.40;99.90;;;;;;4976882;28;20137;-84
2022/06/07 21:07:19;;;;;;;1.67;0.70;;;13.40;99.90;;;;;;4995481;28;20065;-84
2022/06/07 21:09:44;;;;;;;2.58;1.23;;;13.40;99.90;;;;;;4995263;28;20050;-82
2022/06/07 21:12:10;;;;;;;1.70;0.55;;;13.30;99.90;;;;;;4994982;28;20053;-83
2022/06/07 21:14:36;;;;;;;1.17;0.70;;;13.30;99.90;;;;;;4975575;28;20059;-83
2022/06/07 21:17:03;;;;;;;0.90;0.47;;;13.30;99.90;;;;;;4992300;28;20101;-83
2022/06/07 21:19:28;;;;;;;3.03;0.77;;;13.20;99.90;;;;;;4994577;28;20046;-85
2022/06/07 21:21:54;;;;;;;2.08;0.60;;;13.40;99.90;;;;;;4996303;28;20042;-86
2022/06/07 21:24:20;;;;;;;3.38;1.00;;;13.10;99.90;;;;;;4995445;28;20477;-86
2022/06/07 21:26:46;;;;;;;1.23;0.50;;;13.00;99.90;;;;;;4994970;28;20042;-85
2022/06/07 21:29:11;;;;;;;1.08;0.60;;;13.00;99.90;;;;;;4994670;28;20144;-86
2022/06/07 21:31:37;;;;;;;3.35;1.08;;;13.00;99.90;;;;;;4978649;28;20057;-86
2022/06/07 21:34:03;;;;;;;2.55;0.70;;;12.90;99.90;;;;;;4994650;28;20043;-86
2022/06/07 21:36:29;;;;;;;1.75;0.60;;;12.90;99.90;;;;;;4994766;28;20050;-85
2022/06/07 21:38:55;;;;;;;1.75;0.70;;;12.80;99.90;;;;;;4994715;28;20046;-85
2022/06/07 21:41:22;;;;;;;1.25;0.60;;;12.80;99.90;;;;;;4994604;28;20050;-86
2022/06/07 21:43:48;;;;;;;2.65;0.60;;;12.70;99.90;;;;;;4994657;28;20042;-85
2022/06/07 21:46:14;;;;;;;2.58;0.90;;;12.70;99.90;;;;;;4996045;28;20046;-85
2022/06/07 21:48:40;;;;;;;1.27;0.60;;;12.50;99.90;;;;;;4993820;28;20121;-85
2022/06/07 21:51:06;;;;;;;0.98;0.60;;;12.50;99.90;;;;;;4994574;28;20134;-85
2022/06/07 21:53:31;;;;;;;2.72;0.70;;;12.40;99.90;;;;;;4995528;28;20070;-86
2022/06/07 21:55:57;;;;;;;1.55;0.70;;;12.40;99.90;;;;;;4995077;28;20042;-86
2022/06/07 21:58:29;;;;;;;3.55;0.70;;;12.30;99.90;;;;;;4995510;28;20042;-87
2022/06/07 22:00:55;;;;;;;1.45;0.70;;;13.00;99.90;;;;;;4991795;28;20042;-86
2022/06/07 22:03:22;;;;;;;1.13;0.60;;;12.20;99.90;;;;;;4986851;28;20065;-86
2022/06/07 22:05:52;;;;;;;1.75;0.68;;;12.10;99.90;;;;;;4994190;28;20078;-86
2022/06/07 22:08:21;;;;;;;1.48;0.70;;;12.10;99.90;;;;;;4995655;28;20042;-86
2022/06/07 22:10:49;;;;;;;1.25;0.52;;;12.00;99.90;;;;;;4994249;28;20052;-86
2022/06/07 22:13:18;;;;;;;2.40;0.70;;;12.00;99.90;;;;;;4978015;28;20058;-86
2022/06/07 22:15:52;;;;;;;2.38;1.05;;;11.90;99.90;;;;;;4994007;28;20051;-86
2022/06/07 22:18:18;;;;;;;2.75;1.13;;;11.90;99.90;;;;;;4994072;28;20521;-86
2022/06/07 22:20:44;;;;;;;2.50;0.70;;;11.90;99.90;;;;;;4993963;28;20081;-86
2022/06/07 22:23:10;;;;;;;1.63;0.70;;;11.80;99.90;;;;;;4993030;28;20047;-86
2022/06/07 22:25:37;;;;;;;1.92;0.80;;;11.80;99.90;;;;;;4994109;28;20556;-86
2022/06/07 22:28:05;;;;;;;2.28;0.77;;;11.80;99.90;;;;;;4994798;28;20038;-86
2022/06/07 22:30:30;;;;;;;2.42;1.05;;;11.70;99.90;;;;;;4977712;28;20494;-86
2022/06/07 22:32:56;;;;;;;1.83;0.70;;;11.70;99.90;;;;;;4994500;28;20101;-86
2022/06/07 22:35:25;;;;;;;4.20;0.80;;;11.70;99.90;;;;;;4977751;28;20086;-86
2022/06/07 22:37:51;;;;;;;1.00;0.73;;;11.70;99.90;;;;;;4993647;28;20042;-86
2022/06/07 22:40:21;;;;;;;1.13;0.73;;;11.60;99.90;;;;;;4993967;28;20056;-87
2022/06/07 22:42:50;;;;;;;1.80;0.70;;;11.50;99.90;;;;;;4978057;28;20081;-89
2022/06/07 22:45:18;;;;;;;1.17;0.80;;;11.50;99.90;;;;;;4994495;28;20046;-87
2022/06/07 22:47:44;;;;;;;1.98;0.80;;;11.40;99.90;;;;;;4993662;28;20074;-90
2022/06/07 22:50:12;;;;;;;1.42;0.52;;;11.30;99.90;;;;;;4994645;28;20078;-90
2022/06/07 22:52:46;;;;;;;0.82;0.70;;;11.30;99.90;;;;;;4977219;28;20062;-90
2022/06/07 22:55:19;;;;;;;1.77;0.70;;;11.60;99.90;;;;;;4994455;28;20034;-87
2022/06/07 22:57:49;;;;;;;0.90;0.85;;;10.60;99.90;;;;;;4977097;28;20050;-85
2022/06/07 23:00:17;;;;;;;0.77;0.63;;;11.10;99.90;;;;;;4994325;28;20046;-85
2022/06/07 23:03:02;;;;;;;1.98;0.80;;;11.00;99.90;;;;;;4993095;28;20046;-86
2022/06/07 23:05:28;;;;;;;1.67;0.70;;;11.60;99.90;;;;;;4992443;28;20065;-86
2022/06/07 23:07:55;;;;;;;1.08;0.70;;;10.90;99.90;;;;;;4994463;28;20385;-86
2022/06/07 23:10:20;;;;;;;1.15;0.70;;;10.80;99.90;;;;;;4976961;28;20054;-86
2022/06/07 23:12:46;;;;;;;1.15;0.80;;;10.80;99.90;;;;;;4994123;28;20053;-87
2022/06/07 23:17:59;;;;;;;1.20;0.90;;;10.70;99.90;;;;;;4994010;28;20097;-87
2022/06/07 23:20:27;;;;;;;1.55;0.85;;;10.70;99.90;;;;;;4993050;28;20042;-88
2022/06/07 23:22:53;;;;;;;1.73;0.80;;;10.60;99.90;;;;;;4992684;28;20038;-88
2022/06/07 23:25:20;;;;;;;3.40;0.90;;;10.60;99.90;;;;;;4976570;28;20050;-87
2022/06/07 23:27:46;;;;;;;3.65;0.90;;;10.50;99.90;;;;;;4992768;28;20054;-88
2022/06/07 23:30:12;;;;;;;2.28;0.85;;;10.50;99.90;;;;;;4992259;28;20412;-88
2022/06/07 23:32:39;;;;;;;2.30;0.80;;;10.40;99.90;;;;;;4992908;28;20516;-88
2022/06/07 23:35:09;;;;;;;2.72;0.90;;;10.40;99.90;;;;;;4992461;28;20176;-88
2022/06/07 23:37:36;;;;;;;1.92;0.80;;;10.30;99.90;;;;;;4992860;28;20401;-88
2022/06/07 23:40:04;;;;;;;1.25;0.73;;;10.20;99.90;;;;;;4993692;28;20471;-86
2022/06/07 23:42:30;;;;;;;2.78;1.00;;;10.20;99.90;;;;;;4992391;28;20039;-89
2022/06/07 23:44:56;;;;;;;1.52;0.80;;;10.30;99.90;;;;;;4992436;28;20046;-86
2022/06/07 23:47:38;;;;;;;1.75;1.05;;;10.10;99.90;;;;;;4992831;28;20400;-87
2022/06/07 23:50:13;;;;;;;1.13;0.80;;;10.10;99.90;;;;;;4992114;28;20069;-86
2022/06/07 23:52:46;;;;;;;2.35;1.05;;;10.10;99.90;;;;;;4992136;28;20134;-88
2022/06/07 23:55:13;;;;;;;1.17;0.93;;;10.00;99.90;;;;;;4992075;28;20054;-87
2022/06/07 23:57:41;;;;;;;1.75;0.82;;;10.60;99.90;;;;;;4993491;28;20456;-86
